Confluence, PA (15424)

9:49 PM EST on February 27, 2017 (GMT -0500)
KPACONFL2 | | Change Station

Elev 1336 ft 39.81 °N, 79.36 °W | Updated 9 seconds ago

Overcast
Overcast
39.8 °F
Feels Like 40 °F
N
0.0
Wind Variable Wind from SSE
Gusts 0.0 mph

Today
High -- | Low -- °F
--% Chance of Precip.
Yesterday
High -- | Low -- °F
Precip. -- in
Pressure 30.27 in
Visibility 10.0 miles
Clouds Overcast 6000 ft
Windchill 40 °F
Dew Point 39 °F
Humidity 96%
Rainfall 0.02 in
Snow Depth Not available.
6:53 AM 6:07 PM
Waxing Crescent, 3% visible
METAR K2G4 280240Z AUTO 18009KT 10SM OVC060 04/00 A3027 RMK AO1
Pressure 30.27 in
Visibility 10.0 miles
Clouds Overcast 6000 ft
Windchill 40 °F
Dew Point 39 °F
Humidity 96%
Rainfall 0.02 in
Snow Depth Not available.
6:53 AM 6:07 PM
Waxing Crescent, 3% visible
METAR K2G4 280240Z AUTO 18009KT 10SM OVC060 04/00 A3027 RMK AO1

Get Your Daily Forecast Email!

Thanks for signing up!

Be on the lookout for a verification email in your inbox.

You'll start receiving the daily forecast at 8 AM.

×

10-Day Weather Forecast

Almanac

Astronomy

Feb. 27, 2017 Rise Set
Actual Time
Civil Twilight
Nautical Twilight
Astronomical Twilight
Moon
Length of Visible Light
Length of Day
Tomorrow will be .
, % of the Moon is Illuminated

Today's Extremes

State Highs State Lows

Community

WunderPhotos

Upload Photos

1,962,540 photos uploaded!

WunderBlog® & News

Nearby

Air Quality

  Air Quality AQ Index Pollutant
Not available.

Snow Depth

Station Depth Elevation

Earthquake Activity

City Distance Mag. Time & Date
Minimum magnitude displayed is 2.5.

Coastal Water Temperatures

Place Temperature

Stations

Nearby Weather Stations

Station Location Temp. Windchill Dew Point Humidity Wind Precip. Elev Updated Type
                   

Watches & Warnings

There are currently no watches in effect.